Time;durP1;ratioP1;P1;durP2;ratioP2;P2;SDS_P1;SDS_P2;PMS_P1;PMS_P2;Temp;Humidity;BMP_temperature;BMP_pressure;BME280_temperature;BME280_humidity;BME280_pressure;Samples;Min_cycle;Max_cycle;Signal;HPM_P1;HPM_P2
2023/10/26 08:35:23;;;;;;;19.10;14.40;;;;;;;16.96;100.00;99526.02;102740;1288;615676;-74
2023/10/26 08:37:49;;;;;;;16.30;14.40;;;;;;;16.99;100.00;99530.06;105135;1263;59285;-75
2023/10/26 08:40:18;;;;;;;19.10;16.00;;;;;;;17.04;100.00;99534.79;105219;1264;59480;-78
2023/10/26 08:42:46;;;;;;;23.10;15.90;;;;;;;17.07;100.00;99529.17;105117;1265;71595;-75
2023/10/26 08:45:24;;;;;;;18.70;15.00;;;;;;;17.11;100.00;99533.15;105150;1267;62958;-76
2023/10/26 08:47:51;;;;;;;18.90;14.80;;;;;;;17.14;100.00;99534.88;105007;1265;233943;-76
2023/10/26 08:50:22;;;;;;;16.10;14.10;;;;;;;17.18;100.00;99536.61;105195;1260;61938;-76
2023/10/26 08:52:50;;;;;;;17.60;14.20;;;;;;;17.23;100.00;99543.88;105277;1264;59326;-75
2023/10/26 08:55:18;;;;;;;22.20;15.30;;;;;;;17.27;100.00;99546.30;105322;1261;71953;-76
2023/10/26 08:57:49;;;;;;;17.90;14.60;;;;;;;17.29;100.00;99550.16;105238;1265;63940;-76
2023/10/26 09:00:16;;;;;;;20.90;14.30;;;;;;;17.29;100.00;99551.75;105859;1257;72588;-77
2023/10/26 09:02:43;;;;;;;16.80;14.70;;;;;;;17.29;100.00;99545.74;105852;1257;61212;-76
2023/10/26 09:05:11;;;;;;;19.70;15.20;;;;;;;17.30;100.00;99547.42;105860;1252;60709;-76
2023/10/26 09:07:38;;;;;;;23.80;16.40;;;;;;;17.31;100.00;99546.05;105878;1255;74345;-76
2023/10/26 09:10:06;;;;;;;19.70;16.10;;;;;;;17.30;100.00;99548.25;105896;1257;63891;-77
2023/10/26 09:12:34;;;;;;;20.40;15.90;;;;;;;17.26;100.00;99549.89;105883;1264;72577;-78
2023/10/26 09:15:02;;;;;;;25.40;17.20;;;;;;;17.24;100.00;99552.59;105940;1257;61218;-78
2023/10/26 09:17:30;;;;;;;22.80;17.40;;;;;;;17.23;100.00;99545.16;105897;1257;59795;-78
2023/10/26 09:19:58;;;;;;;28.80;19.90;;;;;;;17.22;100.00;99543.45;105869;1257;73124;-76
2023/10/26 09:22:37;;;;;;;27.20;20.40;;;;;;;17.22;100.00;99544.52;105886;1255;62222;-79
2023/10/26 09:25:11;;;;;;;30.40;21.30;;;;;;;17.22;100.00;99543.77;105793;1257;72726;-76
2023/10/26 09:27:40;;;;;;;21.80;16.70;;;;;;;17.23;100.00;99538.55;105829;1256;61807;-79
2023/10/26 09:30:31;;;;;;;22.70;19.50;;;;;;;17.25;100.00;99528.29;105858;1258;61589;-75
2023/10/26 09:32:58;;;;;;;21.40;17.00;;;;;;;17.26;100.00;99523.94;106147;1253;72953;-77
2023/10/26 09:35:31;;;;;;;26.00;19.20;;;;;;;17.27;100.00;99521.90;106142;1251;62719;-78
2023/10/26 09:37:58;;;;;;;22.10;16.80;;;;;;;17.28;100.00;99520.67;106205;1254;72780;-75
2023/10/26 09:40:26;;;;;;;19.60;17.00;;;;;;;17.31;100.00;99522.73;106233;1253;60639;-77
2023/10/26 09:42:55;;;;;;;24.90;17.90;;;;;;;17.34;100.00;99525.23;106041;1256;59515;-78
2023/10/26 09:45:23;;;;;;;25.70;19.00;;;;;;;17.38;100.00;99522.15;106151;1254;74266;-79
2023/10/26 09:47:50;;;;;;;27.20;22.10;;;;;;;17.43;100.00;99518.58;106157;1252;64032;-77
2023/10/26 09:50:17;;;;;;;21.40;17.80;;;;;;;17.49;100.00;99516.77;106123;1252;72495;-76
2023/10/26 09:52:44;;;;;;;22.20;17.30;;;;;;;17.53;100.00;99515.21;106047;1259;60658;-77
2023/10/26 09:55:11;;;;;;;21.80;16.50;;;;;;;17.57;100.00;99512.37;105812;1258;59493;-78
2023/10/26 09:57:45;;;;;;;28.40;19.50;;;;;;;17.60;100.00;99511.67;106126;1249;72938;-76
2023/10/26 10:00:13;;;;;;;25.80;19.30;;;;;;;17.61;100.00;99509.94;106055;1253;63868;-76
2023/10/26 10:02:41;;;;;;;25.00;19.60;;;;;;;17.62;100.00;99515.85;106114;1253;72659;-76
2023/10/26 10:05:37;;;;;;;25.10;20.00;;;;;;;17.64;100.00;99524.57;106106;1253;60688;-74
2023/10/26 10:08:05;;;;;;;25.60;18.70;;;;;;;17.66;100.00;99530.91;106160;1249;60295;-75
2023/10/26 10:10:33;;;;;;;26.90;18.80;;;;;;;17.66;100.00;99535.24;106157;1254;73040;-76
2023/10/26 10:13:00;;;;;;;26.50;18.80;;;;;;;17.65;100.00;99534.68;106191;1251;62541;-78
2023/10/26 10:15:34;;;;;;;27.80;19.40;;;;;;;17.64;100.00;99537.97;106195;1253;72688;-77
2023/10/26 10:18:09;;;;;;;26.30;20.90;;;;;;;17.64;100.00;99540.95;106127;1254;62910;-76
2023/10/26 10:20:38;;;;;;;28.30;20.00;;;;;;;17.64;100.00;99538.78;106150;1255;61413;-78
2023/10/26 10:23:05;;;;;;;25.80;18.40;;;;;;;17.67;100.00;99542.70;106100;1254;73049;-77
2023/10/26 10:25:56;;;;;;;25.50;19.20;;;;;;;17.70;100.00;99547.48;106072;1258;62996;-78
2023/10/26 10:28:39;;;;;;;22.80;19.10;;;;;;;17.76;100.00;99548.84;105970;1254;72744;-77
2023/10/26 10:31:06;;;;;;;30.00;20.50;;;;;;;17.78;100.00;99550.43;106164;1251;59725;-78
2023/10/26 10:33:33;;;;;;;30.90;20.80;;;;;;;17.75;100.00;99554.09;106115;1249;60151;-78
2023/10/26 10:36:02;;;;;;;28.50;20.00;;;;;;;17.72;100.00;99561.63;105924;1250;71712;-77
2023/10/26 10:38:30;;;;;;;29.40;20.80;;;;;;;17.72;100.00;99565.02;106165;1253;63896;-78
2023/10/26 10:41:00;;;;;;;29.10;20.50;;;;;;;17.70;100.00;99570.67;106159;1262;72639;-78
2023/10/26 10:43:45;;;;;;;30.70;20.50;;;;;;;17.66;100.00;99574.16;106197;1253;62792;-77
2023/10/26 10:46:12;;;;;;;30.10;20.90;;;;;;;17.62;100.00;99572.80;106203;1252;59733;-77
2023/10/26 10:49:06;;;;;;;31.60;22.50;;;;;;;17.59;100.00;99568.44;106220;1251;71728;-79
2023/10/26 10:51:37;;;;;;;;;;;;;;;17.58;100.00;99560.33;106144;1251;63957;-79
2023/10/26 10:54:06;;;;;;;29.80;22.60;;;;;;;17.56;100.00;99549.58;106145;1250;73612;-78
2023/10/26 10:56:52;;;;;;;25.90;21.70;;;;;;;17.56;100.00;99550.31;106106;1251;62156;-77
2023/10/26 10:59:25;;;;;;;33.10;22.20;;;;;;;17.57;100.00;99560.09;106076;1251;59489;-77
2023/10/26 11:02:11;;;;;;;30.60;22.30;;;;;;;17.58;100.00;99560.86;106098;1253;73050;-78
2023/10/26 11:04:55;;;;;;;30.40;23.60;;;;;;;17.59;100.00;99553.77;106110;1253;63742;-79
2023/10/26 11:07:39;;;;;;;38.00;24.60;;;;;;;17.61;100.00;99550.98;106040;1251;72513;-77
2023/10/26 11:10:07;;;;;;;35.60;25.70;;;;;;;17.63;100.00;99545.33;106056;1254;60690;-77
2023/10/26 11:12:35;;;;;;;46.60;26.60;;;;;;;17.64;100.00;99546.82;106143;1251;60374;-79
2023/10/26 11:15:03;;;;;;;36.70;25.70;;;;;;;17.65;100.00;99552.00;105888;1255;74319;-76
2023/10/26 11:17:31;;;;;;;36.70;25.70;;;;;;;17.66;100.00;99558.45;106117;1253;64285;-79
2023/10/26 11:19:58;;;;;;;35.50;25.10;;;;;;;17.67;100.00;99560.79;105916;1257;72359;-77
2023/10/26 11:22:25;;;;;;;33.70;26.00;;;;;;;17.65;100.00;99556.71;106150;1253;60596;-78
2023/10/26 11:24:52;;;;;;;34.50;26.20;;;;;;;17.65;100.00;99553.90;106131;1251;59710;-77
2023/10/26 11:27:20;;;;;;;38.30;26.00;;;;;;;17.69;100.00;99550.10;106128;1251;71677;-76
2023/10/26 11:30:03;;;;;;;42.10;26.10;;;;;;;17.77;100.00;99554.01;106156;1251;62378;-76
2023/10/26 11:32:32;;;;;;;38.80;27.50;;;;;;;17.87;100.00;99552.98;106053;1251;72664;-78
2023/10/26 11:35:09;;;;;;;29.90;23.00;;;;;;;17.96;100.00;99549.58;106010;1253;62932;-77
2023/10/26 11:37:37;;;;;;;31.40;22.80;;;;;;;18.07;100.00;99553.55;106124;1254;59636;-77
2023/10/26 11:40:05;;;;;;;29.10;22.60;;;;;;;18.19;100.00;99549.16;106136;1254;72951;-77
2023/10/26 11:42:59;;;;;;;33.80;22.70;;;;;;;18.34;100.00;99546.85;106130;1254;62793;-76
2023/10/26 11:45:29;;;;;;;28.20;20.80;;;;;;;18.55;100.00;99544.48;106060;1253;72634;-76
2023/10/26 11:47:57;;;;;;;29.30;21.30;;;;;;;18.72;100.00;99546.56;106056;1254;60435;-78
2023/10/26 11:50:34;;;;;;;27.90;19.90;;;;;;;18.86;100.00;99551.19;106094;1250;60218;-76
2023/10/26 11:53:02;;;;;;;26.80;20.00;;;;;;;18.93;100.00;99549.13;106092;1254;72257;-76
2023/10/26 11:55:31;;;;;;;24.10;17.60;;;;;;;18.96;100.00;99549.75;106113;1254;65128;-76
2023/10/26 11:57:59;;;;;;;24.50;18.90;;;;;;;18.95;100.00;99555.71;106133;1251;71258;-77
2023/10/26 12:00:27;;;;;;;22.80;17.70;;;;;;;18.90;100.00;99557.31;106102;1253;62970;-77
2023/10/26 12:02:58;;;;;;;25.60;18.50;;;;;;;18.84;100.00;99558.10;106131;1250;60241;-77
2023/10/26 12:05:25;;;;;;;20.10;15.20;;;;;;;18.81;100.00;99559.36;106124;1253;72860;-76
2023/10/26 12:07:52;;;;;;;22.00;16.80;;;;;;;18.78;100.00;99566.77;106077;1253;63000;-76
2023/10/26 12:10:21;;;;;;;19.70;16.10;;;;;;;18.79;100.00;99572.00;106066;1251;72607;-75
2023/10/26 12:12:51;;;;;;;30.00;19.40;;;;;;;18.85;100.00;99576.75;106170;1251;62015;-75
2023/10/26 12:15:19;;;;;;;18.70;15.30;;;;;;;18.95;100.00;99571.41;106123;1253;60343;-77
2023/10/26 12:17:48;;;;;;;23.70;14.70;;;;;;;19.07;100.00;99569.92;106164;1249;71945;-78
2023/10/26 12:20:15;;;;;;;25.40;14.80;;;;;;;19.18;100.00;99573.43;106144;1254;62525;-76
2023/10/26 12:22:42;;;;;;;20.00;13.70;;;;;;;19.28;100.00;99562.75;106068;1254;72870;-76
2023/10/26 12:25:10;;;;;;;22.80;15.90;;;;;;;19.35;100.00;99557.73;105871;1257;60336;-74
2023/10/26 12:27:38;;;;;;;20.90;15.40;;;;;;;19.34;100.00;99562.02;106038;1253;61341;-75
2023/10/26 12:30:25;;;;;;;20.60;15.20;;;;;;;19.28;100.00;99563.48;106068;1249;74229;-76
2023/10/26 12:32:52;;;;;;;25.50;15.90;;;;;;;19.18;100.00;99563.20;105757;1254;65145;-75
2023/10/26 12:35:20;;;;;;;27.00;16.40;;;;;;;19.04;100.00;99573.60;106084;1254;73567;-77
2023/10/26 12:37:47;;;;;;;19.50;16.60;;;;;;;18.89;100.00;99578.14;105861;1257;61195;-79
2023/10/26 12:40:14;;;;;;;24.00;18.50;;;;;;;18.74;100.00;99585.26;106088;1248;60450;-77
2023/10/26 12:42:43;;;;;;;20.10;17.90;;;;;;;18.60;100.00;99585.52;106077;1252;72927;-78
2023/10/26 12:45:10;;;;;;;19.60;16.40;;;;;;;18.49;100.00;99586.27;106199;1248;63661;-77
2023/10/26 12:47:37;;;;;;;23.00;16.50;;;;;;;18.38;100.00;99589.77;106117;1249;72700;-78
2023/10/26 12:50:04;;;;;;;22.10;16.30;;;;;;;18.27;100.00;99593.07;106185;1248;61006;-78
2023/10/26 12:52:31;;;;;;;20.70;14.20;;;;;;;18.19;100.00;99596.60;106138;1248;60573;-77
2023/10/26 12:54:58;;;;;;;18.00;14.00;;;;;;;18.14;100.00;99603.50;106150;1253;73658;-78
2023/10/26 12:57:25;;;;;;;19.10;13.60;;;;;;;18.13;100.00;99604.27;106174;1254;64142;-76
2023/10/26 12:59:52;;;;;;;20.30;14.00;;;;;;;18.17;100.00;99600.34;106232;1254;71300;-77
2023/10/26 13:02:19;;;;;;;16.40;13.90;;;;;;;18.26;100.00;99599.75;106253;1248;60555;-76
2023/10/26 13:04:47;;;;;;;20.00;12.60;;;;;;;18.36;100.00;99605.20;106164;1248;60462;-77
2023/10/26 13:07:13;;;;;;;18.10;11.70;;;;;;;18.46;100.00;99606.92;106079;1253;74066;-77
2023/10/26 13:09:42;;;;;;;13.10;10.30;;;;;;;18.55;100.00;99606.68;106095;1248;63917;-77
2023/10/26 13:12:09;;;;;;;13.90;10.80;;;;;;;18.61;100.00;99604.05;106124;1248;73206;-77
2023/10/26 13:14:36;;;;;;;17.00;13.80;;;;;;;18.65;100.00;99596.40;106181;1254;62030;-75
2023/10/26 13:17:04;;;;;;;21.70;14.40;;;;;;;18.67;100.00;99602.15;106194;1248;60437;-78
2023/10/26 13:19:32;;;;;;;21.90;15.20;;;;;;;18.66;100.00;99603.02;105937;1248;73520;-78
2023/10/26 13:21:59;;;;;;;18.80;11.60;;;;;;;18.64;100.00;99609.76;106203;1254;65453;-76
2023/10/26 13:24:26;;;;;;;12.10;7.50;;;;;;;18.60;100.00;99605.52;106182;1253;71202;-76
2023/10/26 13:26:53;;;;;;;11.50;7.20;;;;;;;18.54;100.00;99606.35;106205;1253;60462;-76
2023/10/26 13:29:25;;;;;;;6.40;5.70;;;;;;;18.48;100.00;99609.41;106305;1248;60440;-77
2023/10/26 13:31:52;;;;;;;7.60;6.30;;;;;;;18.40;100.00;99605.83;106621;1254;73404;-75
2023/10/26 13:34:19;;;;;;;10.00;5.90;;;;;;;18.31;100.00;99608.70;106474;1254;63828;-75
2023/10/26 13:36:46;;;;;;;8.30;5.70;;;;;;;18.22;100.00;99610.37;106244;1248;73548;-75
2023/10/26 13:39:13;;;;;;;7.50;6.40;;;;;;;18.14;100.00;99611.12;106091;1249;61719;-77
2023/10/26 13:41:40;;;;;;;9.30;6.10;;;;;;;18.05;100.00;99605.92;105983;1254;60341;-78
2023/10/26 13:44:08;;;;;;;6.30;5.30;;;;;;;17.96;100.00;99608.63;106072;1250;73723;-78
2023/10/26 13:46:35;;;;;;;7.70;6.30;;;;;;;17.88;100.00;99614.30;106079;1254;63675;-77
2023/10/26 13:49:02;;;;;;;8.40;6.30;;;;;;;17.80;100.00;99616.52;105974;1254;72675;-76
2023/10/26 13:51:29;;;;;;;14.20;7.30;;;;;;;17.71;100.00;99619.88;106009;1253;62996;-78
2023/10/26 13:53:56;;;;;;;8.10;6.10;;;;;;;17.65;100.00;99623.91;105991;1251;60430;-77
2023/10/26 13:56:23;;;;;;;11.00;7.30;;;;;;;17.60;100.00;99622.30;106002;1254;73899;-77
2023/10/26 13:58:49;;;;;;;12.70;7.20;;;;;;;17.55;100.00;99624.10;105971;1253;65094;-77
2023/10/26 14:01:16;;;;;;;10.10;7.00;;;;;;;17.49;100.00;99632.52;106062;1251;72486;-78
2023/10/26 14:03:43;;;;;;;9.00;6.90;;;;;;;17.43;100.00;99635.20;106006;1249;61268;-75
2023/10/26 14:06:11;;;;;;;16.60;7.30;;;;;;;17.37;100.00;99642.05;106008;1253;60398;-76
2023/10/26 14:08:38;;;;;;;13.10;8.30;;;;;;;17.31;100.00;99643.94;106088;1249;74883;-75
2023/10/26 14:11:05;;;;;;;9.70;8.70;;;;;;;17.23;100.00;99643.65;106231;1254;63140;-76
2023/10/26 14:13:32;;;;;;;11.80;9.00;;;;;;;17.15;100.00;99642.57;106035;1251;73133;-76
2023/10/26 14:15:59;;;;;;;11.90;8.30;;;;;;;17.07;100.00;99648.51;106037;1254;60578;-77
2023/10/26 14:18:26;;;;;;;11.40;8.60;;;;;;;17.01;100.00;99651.58;106059;1254;60415;-78
2023/10/26 14:20:53;;;;;;;16.20;8.40;;;;;;;16.95;100.00;99651.84;105990;1253;73944;-77
2023/10/26 14:23:20;;;;;;;11.90;8.40;;;;;;;16.88;100.00;99654.16;105956;1251;64134;-74
2023/10/26 14:25:48;;;;;;;13.60;9.50;;;;;;;16.80;100.00;99658.83;105982;1251;72461;-77
2023/10/26 14:28:14;;;;;;;15.20;10.60;;;;;;;16.72;100.00;99660.17;105960;1253;61855;-77
2023/10/26 14:30:48;;;;;;;12.80;10.70;;;;;;;16.64;100.00;99662.52;106059;1251;60482;-77
2023/10/26 14:33:16;;;;;;;13.50;9.90;;;;;;;16.57;100.00;99663.92;105761;1256;73716;-77
2023/10/26 14:35:42;;;;;;;13.90;10.30;;;;;;;16.51;100.00;99667.59;106026;1250;64051;-76
2023/10/26 14:38:09;;;;;;;14.80;10.90;;;;;;;16.43;100.00;99671.48;106011;1251;73824;-75
2023/10/26 14:40:38;;;;;;;15.70;11.20;;;;;;;16.33;100.00;99669.65;105930;1253;61978;-77
2023/10/26 14:43:05;;;;;;;14.20;9.80;;;;;;;16.24;100.00;99670.77;106068;1253;60323;-78
2023/10/26 14:45:33;;;;;;;15.50;10.50;;;;;;;16.14;100.00;99669.65;105955;1251;73821;-75
2023/10/26 14:48:00;;;;;;;16.00;10.70;;;;;;;16.04;100.00;99671.33;106015;1254;64846;-75
2023/10/26 14:50:28;;;;;;;13.80;10.80;;;;;;;15.95;100.00;99670.65;106045;1251;74010;-78
2023/10/26 14:52:55;;;;;;;12.40;9.90;;;;;;;15.85;100.00;99675.58;106069;1253;61997;-77
2023/10/26 14:55:23;;;;;;;13.10;10.40;;;;;;;15.77;100.00;99681.20;106043;1251;60322;-77
2023/10/26 14:57:53;;;;;;;15.50;12.00;;;;;;;15.68;100.00;99681.85;106026;1251;73713;-75
2023/10/26 15:00:20;;;;;;;15.10;12.50;;;;;;;15.60;100.00;99687.56;105986;1253;65114;-76
2023/10/26 15:02:47;;;;;;;13.00;11.20;;;;;;;15.51;100.00;99693.64;105945;1251;73920;-76
2023/10/26 15:05:14;;;;;;;16.10;11.50;;;;;;;15.43;100.00;99695.83;105961;1254;61768;-76
2023/10/26 15:07:41;;;;;;;22.90;14.00;;;;;;;15.36;100.00;99695.16;105997;1253;60421;-77
2023/10/26 15:10:08;;;;;;;16.40;13.50;;;;;;;15.29;100.00;99697.69;105990;1254;75041;-76
2023/10/26 15:12:50;;;;;;;20.70;13.70;;;;;;;15.22;100.00;99696.64;106058;1251;62035;-75
2023/10/26 15:15:18;;;;;;;18.90;13.40;;;;;;;15.14;100.00;99699.11;106015;1254;72767;-78
2023/10/26 15:17:45;;;;;;;16.00;13.90;;;;;;;15.07;100.00;99702.71;105919;1251;62098;-79
2023/10/26 15:20:12;;;;;;;14.70;13.00;;;;;;;14.99;100.00;99706.82;105956;1251;60411;-76
2023/10/26 15:22:39;;;;;;;15.30;13.00;;;;;;;14.93;100.00;99712.54;106025;1251;72605;-76
2023/10/26 15:25:06;;;;;;;20.50;14.70;;;;;;;14.87;100.00;99713.96;105976;1251;65083;-76
2023/10/26 15:27:33;;;;;;;23.00;18.00;;;;;;;14.80;100.00;99714.02;106090;1251;72514;-77
2023/10/26 15:30:01;;;;;;;36.70;23.50;;;;;;;14.75;100.00;99718.98;105999;1251;61843;-76
2023/10/26 15:32:29;;;;;;;31.60;23.80;;;;;;;14.70;100.00;99723.83;106008;1251;62093;-76
2023/10/26 15:34:56;;;;;;;33.00;22.90;;;;;;;14.66;100.00;99727.36;106071;1251;75137;-77
2023/10/26 15:37:23;;;;;;;30.20;20.50;;;;;;;14.61;100.00;99725.14;106123;1253;63728;-75
2023/10/26 15:39:53;;;;;;;29.30;20.10;;;;;;;14.56;100.00;99729.13;105940;1253;72955;-74
2023/10/26 15:42:20;;;;;;;29.10;21.10;;;;;;;14.48;100.00;99731.73;105978;1253;62001;-75
2023/10/26 15:44:51;;;;;;;25.50;19.60;;;;;;;14.40;100.00;99727.39;105958;1251;60584;-77
2023/10/26 15:47:22;;;;;;;28.70;20.40;;;;;;;14.33;100.00;99732.97;106048;1249;74367;-75
2023/10/26 15:49:51;;;;;;;22.90;19.10;;;;;;;14.26;100.00;99740.23;106113;1251;63919;-76
2023/10/26 15:52:18;;;;;;;27.80;20.40;;;;;;;14.21;100.00;99738.77;106031;1251;73793;-77
2023/10/26 15:54:45;;;;;;;31.40;20.10;;;;;;;14.16;100.00;99739.00;106000;1254;63146;-77
2023/10/26 15:57:14;;;;;;;25.50;18.90;;;;;;;14.11;100.00;99741.72;106005;1251;60533;-76
2023/10/26 15:59:41;;;;;;;32.30;21.50;;;;;;;14.05;100.00;99740.98;106118;1254;76023;-75
2023/10/26 16:02:08;;;;;;;26.50;21.70;;;;;;;14.01;100.00;99746.31;106015;1251;62927;-77
2023/10/26 16:04:35;;;;;;;30.10;21.00;;;;;;;13.97;100.00;99745.05;105910;1251;72533;-77
2023/10/26 16:07:03;;;;;;;30.80;23.20;;;;;;;13.93;100.00;99744.05;106039;1253;62037;-75
2023/10/26 16:09:33;;;;;;;33.70;23.40;;;;;;;13.87;100.00;99744.73;105969;1251;60473;-76
2023/10/26 16:12:04;;;;;;;28.20;21.20;;;;;;;13.82;100.00;99742.88;105940;1250;72889;-77
2023/10/26 16:14:31;;;;;;;30.20;22.10;;;;;;;13.77;100.00;99743.64;105986;1250;63976;-77
2023/10/26 16:16:58;;;;;;;34.00;23.30;;;;;;;13.75;100.00;99745.29;106102;1249;71213;-77
2023/10/26 16:19:27;;;;;;;31.00;23.40;;;;;;;13.72;100.00;99749.09;107488;1250;62043;-76
2023/10/26 16:21:53;;;;;;;29.00;21.90;;;;;;;13.68;100.00;99750.77;107040;1250;61534;-76
2023/10/26 16:24:21;;;;;;;35.90;27.50;;;;;;;13.64;100.00;99749.34;106123;1251;73933;-75
2023/10/26 16:26:48;;;;;;;35.80;26.00;;;;;;;13.61;100.00;99746.28;106095;1251;63132;-77
2023/10/26 16:29:15;;;;;;;42.90;25.70;;;;;;;13.59;100.00;99748.41;106043;1254;72486;-79
2023/10/26 16:31:42;;;;;;;33.60;25.00;;;;;;;13.56;100.00;99749.87;106064;1250;62021;-79
2023/10/26 16:34:09;;;;;;;34.20;23.80;;;;;;;13.55;100.00;99745.80;106091;1249;60380;-76
2023/10/26 16:36:36;;;;;;;30.20;23.80;;;;;;;13.52;100.00;99747.58;106022;1254;74859;-77
2023/10/26 16:39:04;;;;;;;32.50;24.70;;;;;;;13.50;100.00;99746.77;106027;1251;62129;-77
2023/10/26 16:41:32;;;;;;;34.30;24.60;;;;;;;13.45;100.00;99745.02;105941;1254;73092;-76
2023/10/26 16:43:59;;;;;;;37.90;27.20;;;;;;;13.41;100.00;99743.23;105926;1251;62550;-77
2023/10/26 16:46:26;;;;;;;37.10;27.90;;;;;;;13.39;100.00;99736.98;105970;1250;60449;-78
2023/10/26 16:48:53;;;;;;;42.00;27.40;;;;;;;13.37;100.00;99737.84;105851;1251;73042;-77
2023/10/26 16:51:20;;;;;;;37.40;28.10;;;;;;;13.36;100.00;99737.40;105957;1253;64032;-77
2023/10/26 16:53:47;;;;;;;43.30;29.50;;;;;;;13.34;100.00;99737.95;105859;1253;71836;-79
2023/10/26 16:56:14;;;;;;;50.70;35.80;;;;;;;13.31;100.00;99735.50;105943;1251;60685;-77
2023/10/26 16:58:41;;;;;;;48.20;35.40;;;;;;;13.30;100.00;99731.59;105957;1249;60415;-77
2023/10/26 17:01:10;;;;;;;54.90;35.30;;;;;;;13.26;100.00;99731.52;106076;1253;73979;-78
2023/10/26 17:03:37;;;;;;;51.10;34.70;;;;;;;13.22;100.00;99733.10;106015;1253;64027;-79
2023/10/26 17:06:04;;;;;;;54.20;35.90;;;;;;;13.14;100.00;99729.53;105952;1251;72654;-77
2023/10/26 17:08:31;;;;;;;60.10;37.00;;;;;;;13.09;100.00;99729.31;106045;1251;63088;-77
2023/10/26 17:10:59;;;;;;;58.40;40.30;;;;;;;13.04;100.00;99733.22;106092;1250;60532;-76
2023/10/26 17:13:26;;;;;;;62.10;41.70;;;;;;;12.98;100.00;99734.77;105943;1256;72782;-76
2023/10/26 17:15:53;;;;;;;61.00;37.90;;;;;;;12.92;100.00;99737.38;106177;1251;62576;-78
2023/10/26 17:18:23;;;;;;;58.90;39.20;;;;;;;12.85;100.00;99734.61;106092;1253;70658;-78
2023/10/26 17:20:50;;;;;;;51.80;38.70;;;;;;;12.79;100.00;99729.86;105957;1253;61065;-74
2023/10/26 17:23:16;;;;;;;56.40;38.20;;;;;;;12.74;100.00;99727.64;105927;1249;60533;-78
2023/10/26 17:25:44;;;;;;;57.00;39.70;;;;;;;12.71;100.00;99726.72;106031;1253;74815;-78
2023/10/26 17:28:10;;;;;;;53.90;40.10;;;;;;;12.68;100.00;99727.31;105994;1253;65212;-78
2023/10/26 17:30:39;;;;;;;55.80;38.00;;;;;;;12.68;100.00;99729.11;105971;1251;72770;-77
2023/10/26 17:33:07;;;;;;;56.70;41.10;;;;;;;12.67;100.00;99731.25;105976;1254;63885;-76
2023/10/26 17:35:42;;;;;;;59.80;40.70;;;;;;;12.66;100.00;99732.73;105992;1254;60401;-75
2023/10/26 17:38:09;;;;;;;62.70;41.10;;;;;;;12.65;100.00;99738.95;106038;1251;72622;-79
2023/10/26 17:40:39;;;;;;;60.10;40.80;;;;;;;12.63;100.00;99739.94;105953;1254;63975;-76
2023/10/26 17:43:07;;;;;;;56.60;41.30;;;;;;;12.62;100.00;99743.74;106014;1251;72826;-76
2023/10/26 17:45:35;;;;;;;67.20;43.60;;;;;;;12.61;100.00;99747.17;105953;1254;62107;-76
2023/10/26 17:48:02;;;;;;;56.00;39.60;;;;;;;12.60;100.00;99752.66;106040;1250;60517;-77
2023/10/26 17:50:29;;;;;;;54.30;36.10;;;;;;;12.60;100.00;99750.36;105921;1254;74579;-77
2023/10/26 17:52:56;;;;;;;57.10;39.20;;;;;;;12.60;100.00;99751.63;105974;1254;63954;-77
2023/10/26 17:55:23;;;;;;;65.00;43.80;;;;;;;12.59;100.00;99751.30;105964;1251;71204;-77
2023/10/26 17:57:50;;;;;;;59.10;43.10;;;;;;;12.58;100.00;99749.73;105887;1254;60952;-75
2023/10/26 18:00:17;;;;;;;62.30;42.20;;;;;;;12.56;100.00;99750.20;105932;1251;60596;-77
2023/10/26 18:02:44;;;;;;;58.30;41.90;;;;;;;12.57;100.00;99755.69;105943;1250;74040;-76
2023/10/26 18:05:11;;;;;;;61.30;40.20;;;;;;;12.57;100.00;99760.10;105977;1253;63705;-79
2023/10/26 18:07:39;;;;;;;55.80;38.80;;;;;;;12.56;100.00;99762.09;105960;1251;72531;-78
2023/10/26 18:10:06;;;;;;;58.30;37.90;;;;;;;12.56;100.00;99760.89;105990;1250;60649;-78
2023/10/26 18:12:34;;;;;;;49.90;36.40;;;;;;;12.56;100.00;99762.83;106066;1251;61573;-76
2023/10/26 18:15:01;;;;;;;46.40;33.70;;;;;;;12.55;100.00;99769.42;106027;1251;73769;-77
2023/10/26 18:17:28;;;;;;;40.90;31.60;;;;;;;12.55;100.00;99774.80;106038;1254;63998;-77
2023/10/26 18:19:55;;;;;;;48.10;35.20;;;;;;;12.55;100.00;99781.64;105956;1251;73775;-76
2023/10/26 18:22:22;;;;;;;41.60;29.20;;;;;;;12.54;100.00;99779.44;106052;1251;62480;-74
2023/10/26 18:24:49;;;;;;;47.60;31.90;;;;;;;12.53;100.00;99773.40;106006;1250;61210;-78
2023/10/26 18:27:16;;;;;;;47.70;35.00;;;;;;;12.52;100.00;99777.21;106393;1252;72596;-77
2023/10/26 18:29:45;;;;;;;46.30;33.00;;;;;;;12.49;100.00;99772.73;106301;1249;64046;-76
2023/10/26 18:32:13;;;;;;;45.90;34.00;;;;;;;12.48;100.00;99770.20;106021;1251;73866;-75
2023/10/26 18:34:41;;;;;;;43.40;32.40;;;;;;;12.48;100.00;99768.42;105867;1256;61592;-74
2023/10/26 18:37:09;;;;;;;52.90;37.50;;;;;;;12.48;100.00;99762.42;106079;1250;60439;-77
2023/10/26 18:39:36;;;;;;;47.90;36.60;;;;;;;12.48;100.00;99767.91;106067;1249;73793;-76
2023/10/26 18:42:04;;;;;;;42.20;28.40;;;;;;;12.48;100.00;99767.85;106056;1254;63860;-76
2023/10/26 18:44:31;;;;;;;36.40;26.00;;;;;;;12.52;100.00;99762.48;105986;1251;71066;-77
2023/10/26 18:46:58;;;;;;;36.40;24.70;;;;;;;12.53;100.00;99770.23;106000;1249;62432;-76
2023/10/26 18:49:27;;;;;;;31.70;23.20;;;;;;;12.56;100.00;99772.10;105994;1254;60437;-76
2023/10/26 18:51:54;;;;;;;29.30;24.10;;;;;;;12.57;100.00;99772.21;106006;1253;72818;-77
2023/10/26 18:54:21;;;;;;;36.70;27.00;;;;;;;12.57;100.00;99770.80;105938;1254;63972;-75
2023/10/26 18:56:48;;;;;;;33.10;25.70;;;;;;;12.59;100.00;99766.29;105938;1251;73171;-75
2023/10/26 18:59:15;;;;;;;39.70;29.70;;;;;;;12.57;100.00;99767.09;106029;1254;62363;-75
2023/10/26 19:01:43;;;;;;;44.70;32.00;;;;;;;12.57;100.00;99764.11;106017;1253;60412;-78
2023/10/26 19:04:10;;;;;;;39.90;32.20;;;;;;;12.59;100.00;99763.98;105991;1254;73848;-77
2023/10/26 19:06:39;;;;;;;50.20;35.10;;;;;;;12.61;100.00;99761.55;106007;1253;63868;-77
2023/10/26 19:09:06;;;;;;;45.50;34.40;;;;;;;12.63;100.00;99758.73;106008;1253;72445;-77
2023/10/26 19:11:33;;;;;;;46.50;33.00;;;;;;;12.67;100.00;99761.95;105941;1254;61833;-77
2023/10/26 19:14:00;;;;;;;44.20;34.00;;;;;;;12.70;100.00;99759.94;105968;1250;60520;-77
2023/10/26 19:16:26;;;;;;;48.90;38.20;;;;;;;12.74;100.00;99760.48;106007;1249;72476;-77
2023/10/26 19:18:54;;;;;;;38.10;30.90;;;;;;;12.79;100.00;99758.85;105972;1251;62699;-77
2023/10/26 19:21:21;;;;;;;48.60;30.90;;;;;;;12.83;100.00;99758.44;105978;1252;71333;-77
2023/10/26 19:23:48;;;;;;;49.00;36.00;;;;;;;12.88;100.00;99755.27;105948;1250;61863;-77
2023/10/26 19:26:16;;;;;;;46.00;36.10;;;;;;;12.90;100.00;99758.82;105965;1251;60393;-78
2023/10/26 19:28:43;;;;;;;46.80;38.90;;;;;;;12.90;100.00;99758.07;106027;1254;75011;-77
2023/10/26 19:31:11;;;;;;;45.10;35.40;;;;;;;12.92;100.00;99755.17;106108;1251;63685;-79
2023/10/26 19:33:41;;;;;;;45.40;37.90;;;;;;;12.89;100.00;99747.84;106018;1250;72480;-78
2023/10/26 19:36:09;;;;;;;43.30;33.30;;;;;;;12.84;100.00;99755.56;106024;1254;62066;-77
2023/10/26 19:38:36;;;;;;;44.60;34.90;;;;;;;12.81;100.00;99751.50;106128;1251;60485;-78
2023/10/26 19:41:05;;;;;;;45.30;35.80;;;;;;;12.78;100.00;99745.36;105874;1251;72301;-76
2023/10/26 19:43:38;;;;;;;50.60;36.20;;;;;;;12.78;100.00;99742.05;106073;1252;64032;-77